^^
Your Local Weather - Clay, NY Station Historical Data
Daily Summary for December 31, 2017 Units:  English    Metric   Both
« Previous Day
Next Day »
Daily Weekly Monthly Yearly Custom
  High: Low: Average:
Temperature: 7.3 °F -6.2 °F 1.1 °F
Dew Point: 1.1 °F -10.3 °F -3.9 °F
Humidity: 84% 70% 79%
Wind Speed: 5.0mph 0.0mph 0.7mph
Wind Gust: 9.0mph - -
Wind- - WSW
Pressure: 30.39 in 30.13 in -
Precipitation: 0.00 in    
Historical Graphs
 
 
Tabular Data for December 31, 2017
Time Temperature Dew Point Pressure Wind Wind Speed Wind Gust Humidity Rainfall Rate (Hourly) solar
00:02 0.2 °F -5.0 °F 30.13 in NNW 4.0 mph 4.0 mph 78% 0.00 in 0 W/m2
00:08 0.1 °F -5.1 °F 30.14 in North 4.0 mph 7.0 mph 78% 0.00 in 0 W/m2
00:10 0.1 °F -5.1 °F 30.14 in NW 4.0 mph 6.0 mph 78% 0.00 in 0 W/m2
00:16 0.0 °F -5.0 °F 30.14 in NNW 5.0 mph 9.0 mph 79% 0.00 in 0 W/m2
00:22 0.1 °F -4.9 °F 30.14 in NNW 5.0 mph 6.0 mph 79% 0.00 in 0 W/m2
00:28 0.1 °F -4.9 °F 30.15 in North 4.0 mph 6.0 mph 79% 0.00 in 0 W/m2
00:34 0.1 °F -4.9 °F 30.15 in North 4.0 mph 6.0 mph 79% 0.00 in 0 W/m2
00:40 0.1 °F -4.9 °F 30.15 in NNE 4.0 mph 7.0 mph 79% 0.00 in 0 W/m2
00:46 0.0 °F -5.2 °F 30.16 in NNE 3.0 mph 7.0 mph 78% 0.00 in 0 W/m2
00:52 -0.1 °F -5.3 °F 30.16 in NW 4.0 mph 8.0 mph 78% 0.00 in 0 W/m2
00:58 -0.1 °F -5.3 °F 30.16 in NNW 5.0 mph 8.0 mph 78% 0.00 in 0 W/m2
01:04 -0.2 °F -5.4 °F 30.17 in North 4.0 mph 5.0 mph 78% 0.00 in 0 W/m2
01:06 -0.2 °F -5.4 °F 30.17 in NNW 3.0 mph 5.0 mph 78% 0.00 in 0 W/m2
01:14 -0.4 °F -5.6 °F 30.17 in NNW 3.0 mph 5.0 mph 78% 0.00 in 0 W/m2
01:20 -0.5 °F -5.7 °F 30.17 in NNW 3.0 mph 3.0 mph 78% 0.00 in 0 W/m2
01:22 -0.5 °F -5.7 °F 30.17 in NNW 3.0 mph 3.0 mph 78% 0.00 in 0 W/m2
01:28 -0.5 °F -5.7 °F 30.18 in NE 3.0 mph 3.0 mph 78% 0.00 in 0 W/m2
01:34 -0.6 °F -5.8 °F 30.18 in NNE 3.0 mph 4.0 mph 78% 0.00 in 0 W/m2
01:40 -0.6 °F -5.8 °F 30.18 in NNW 2.0 mph 2.0 mph 78% 0.00 in 0 W/m2
01:46 -0.7 °F -5.9 °F 30.19 in North 2.0 mph 3.0 mph 78% 0.00 in 0 W/m2
01:52 -0.6 °F -5.8 °F 30.19 in North 2.0 mph 2.0 mph 78% 0.00 in 0 W/m2
01:58 -0.6 °F -5.8 °F 30.20 in NNW 2.0 mph 3.0 mph 78% 0.00 in 0 W/m2
02:04 -0.5 °F -5.7 °F 30.20 in NNW 2.0 mph 2.0 mph 78% 0.00 in 0 W/m2
02:10 -0.6 °F -5.8 °F 30.21 in NNW 2.0 mph 2.0 mph 78% 0.00 in 0 W/m2
02:16 -0.6 °F -5.8 °F 30.21 in NNE 3.0 mph 4.0 mph 78% 0.00 in 0 W/m2
02:22 -0.5 °F -5.7 °F 30.22 in North 2.0 mph 3.0 mph 78% 0.00 in 0 W/m2
02:28 -0.6 °F -5.8 °F 30.22 in NNW 1.0 mph 3.0 mph 78% 0.00 in 0 W/m2
02:36 -0.6 °F -5.8 °F 30.23 in NNW 1.0 mph 1.0 mph 78% 0.00 in 0 W/m2
02:44 -0.7 °F -5.9 °F 30.23 in Calm     78% 0.00 in 0 W/m2
02:50 -0.7 °F -5.9 °F 30.23 in Calm     78% 0.00 in 0 W/m2
02:52 -0.7 °F -5.9 °F 30.23 in Calm     78% 0.00 in 0 W/m2
02:58 -0.7 °F -5.7 °F 30.24 in Calm   2.0 mph 79% 0.00 in 0 W/m2
03:04 -0.7 °F -5.7 °F 30.24 in Calm     79% 0.00 in 0 W/m2
03:10 -0.7 °F -5.4 °F 30.24 in Calm     80% 0.00 in 0 W/m2
03:14 -0.7 °F -5.4 °F 30.24 in NNW 1.0 mph 1.0 mph 80% 0.00 in 0 W/m2
03:20 -0.7 °F -5.4 °F 30.25 in Calm     80% 0.00 in 0 W/m2
03:28 -0.8 °F -5.5 °F 30.25 in Calm     80% 0.00 in 0 W/m2
03:34 -0.9 °F -5.6 °F 30.25 in Calm     80% 0.00 in 0 W/m2
03:40 -0.9 °F -5.3 °F 30.25 in Calm     81% 0.00 in 0 W/m2
03:46 -0.9 °F -5.3 °F 30.25 in Calm     81% 0.00 in 0 W/m2
03:52 -0.9 °F -5.3 °F 30.25 in Calm     81% 0.00 in 0 W/m2
03:58 -0.9 °F -5.3 °F 30.25 in Calm   1.0 mph 81% 0.00 in 0 W/m2
04:04 -0.9 °F -5.3 °F 30.25 in Calm     81% 0.00 in 0 W/m2
04:10 -0.9 °F -5.3 °F 30.25 in Calm     81% 0.00 in 0 W/m2
04:16 -0.9 °F -5.3 °F 30.25 in Calm     81% 0.00 in 0 W/m2
04:22 -1.0 °F -5.4 °F 30.25 in Calm     81% 0.00 in 0 W/m2
04:28 -1.0 °F -5.2 °F 30.26 in Calm     82% 0.00 in 0 W/m2
04:34 -1.0 °F -5.2 °F 30.26 in Calm     82% 0.00 in 0 W/m2
04:36 -1.0 °F -5.2 °F 30.26 in Calm     82% 0.00 in 0 W/m2
04:42 -1.0 °F -5.2 °F 30.27 in Calm     82% 0.00 in 0 W/m2
04:44 -1.0 °F -5.2 °F 30.27 in Calm     82% 0.00 in 0 W/m2
04:50 -1.0 °F -5.2 °F 30.27 in Calm     82% 0.00 in 0 W/m2
05:02 -0.8 °F -5.2 °F 30.28 in Calm     81% 0.00 in 0 W/m2
05:08 -0.7 °F -4.9 °F 30.28 in Calm     82% 0.00 in 0 W/m2
05:14 -0.7 °F -4.9 °F 30.28 in Calm     82% 0.00 in 0 W/m2
05:20 -0.7 °F -4.9 °F 30.28 in Calm     82% 0.00 in 0 W/m2
05:26 -0.7 °F -4.9 °F 30.28 in Calm     82% 0.00 in 0 W/m2
05:30 -0.7 °F -4.9 °F 30.28 in Calm     82% 0.00 in 0 W/m2
05:36 -0.7 °F -4.9 °F 30.28 in Calm     82% 0.00 in 0 W/m2
05:42 -0.8 °F -5.0 °F 30.28 in Calm     82% 0.00 in 0 W/m2
05:46 -0.8 °F -5.0 °F 30.28 in Calm     82% 0.00 in 0 W/m2
05:52 -0.9 °F -5.1 °F 30.29 in Calm     82% 0.00 in 0 W/m2
05:58 -1.0 °F -5.2 °F 30.30 in Calm     82% 0.00 in 0 W/m2
06:04 -1.0 °F -5.2 °F 30.30 in Calm     82% 0.00 in 0 W/m2
06:10 -1.0 °F -5.2 °F 30.30 in Calm     82% 0.00 in 0 W/m2
06:16 -1.0 °F -5.2 °F 30.30 in Calm     82% 0.00 in 0 W/m2
06:22 -1.4 °F -5.6 °F 30.29 in Calm     82% 0.00 in 0 W/m2
06:28 -1.6 °F -5.8 °F 30.29 in Calm     82% 0.00 in 0 W/m2
06:34 -2.0 °F -6.1 °F 30.29 in Calm     82% 0.00 in 0 W/m2
06:40 -2.2 °F -6.3 °F 30.29 in Calm     82% 0.00 in 0 W/m2
06:46 -2.6 °F -6.7 °F 30.30 in Calm     82% 0.00 in 0 W/m2
06:52 -2.9 °F -7.0 °F 30.30 in Calm     82% 0.00 in 0 W/m2
06:58 -2.9 °F -7.0 °F 30.30 in Calm     82% 0.00 in 0 W/m2
07:04 -3.1 °F -7.2 °F 30.30 in Calm     82% 0.00 in 0 W/m2
07:08 -3.5 °F -7.6 °F 30.30 in Calm     82% 0.00 in 0 W/m2
07:14 -4.0 °F -8.1 °F 30.30 in Calm     82% 0.00 in 0 W/m2
07:20 -4.4 °F -8.5 °F 30.31 in Calm     82% 0.00 in 0 W/m2
07:26 -5.0 °F -9.1 °F 30.31 in Calm     82% 0.00 in 0 W/m2
07:32 -5.4 °F -9.5 °F 30.31 in Calm     82% 0.00 in 0 W/m2
07:38 -5.6 °F -9.7 °F 30.31 in Calm     82% 0.00 in 0 W/m2
07:40 -5.7 °F -9.8 °F 30.31 in Calm     82% 0.00 in 0 W/m2
07:50 -5.8 °F -9.9 °F 30.31 in Calm     82% 0.00 in 0 W/m2
07:56 -5.8 °F -9.9 °F 30.31 in Calm     82% 0.00 in 0 W/m2
08:00 -5.9 °F -10.0 °F 30.32 in Calm     82% 0.00 in 0 W/m2
08:06 -5.9 °F -10.0 °F 30.31 in Calm     82% 0.00 in 0 W/m2
08:12 -6.0 °F -10.1 °F 30.32 in Calm     82% 0.00 in 5 W/m2
08:18 -6.1 °F -10.2 °F 30.32 in Calm     82% 0.00 in 5 W/m2
08:26 -6.2 °F -10.3 °F 30.32 in Calm     82% 0.00 in 9 W/m2
08:32 -6.2 °F -10.3 °F 30.33 in Calm     82% 0.00 in 14 W/m2
08:38 -5.9 °F -10.0 °F 30.33 in Calm     82% 0.00 in 14 W/m2
08:44 -4.7 °F -8.5 °F 30.33 in Calm     83% 0.00 in 16 W/m2
08:50 -3.4 °F -7.3 °F 30.33 in Calm     83% 0.00 in 16 W/m2
08:56 -2.5 °F -6.4 °F 30.33 in Calm     83% 0.00 in 18 W/m2
09:02 -0.9 °F -4.6 °F 30.33 in Calm     84% 0.00 in 19 W/m2
09:08 0.7 °F -3.3 °F 30.33 in Calm     83% 0.00 in 21 W/m2
09:14 1.3 °F -3.4 °F 30.34 in Calm   1.0 mph 80% 0.00 in 23 W/m2
09:20 1.7 °F -3.3 °F 30.34 in Calm     79% 0.00 in 23 W/m2
09:26 1.5 °F -4.0 °F 30.35 in Calm     77% 0.00 in 23 W/m2
09:32 2.5 °F -3.1 °F 30.36 in Calm     77% 0.00 in 25 W/m2
09:38 2.7 °F -3.4 °F 30.36 in Calm     75% 0.00 in 25 W/m2
09:46 2.1 °F -4.3 °F 30.36 in Calm   1.0 mph 74% 0.00 in 26 W/m2
09:52 2.0 °F -4.4 °F 30.36 in NNW 1.0 mph 1.0 mph 74% 0.00 in 28 W/m2
09:58 2.9 °F -3.5 °F 30.36 in NNW 1.0 mph 3.0 mph 74% 0.00 in 32 W/m2
10:04 2.6 °F -4.1 °F 30.36 in NNW 1.0 mph 2.0 mph 73% 0.00 in 32 W/m2
10:10 2.6 °F -3.8 °F 30.37 in NNW 1.0 mph 1.0 mph 74% 0.00 in 32 W/m2
10:16 3.0 °F -3.4 °F 30.37 in Calm   1.0 mph 74% 0.00 in 35 W/m2
10:22 3.2 °F -3.8 °F 30.37 in Calm     72% 0.00 in 40 W/m2
10:28 3.9 °F -3.1 °F 30.37 in Calm     72% 0.00 in 35 W/m2
10:32 3.8 °F -3.2 °F 30.37 in Calm     72% 0.00 in 33 W/m2
10:38 3.1 °F -3.9 °F 30.37 in Calm     72% 0.00 in 35 W/m2
10:40 2.9 °F -4.1 °F 30.36 in Calm   1.0 mph 72% 0.00 in 37 W/m2
10:46 2.8 °F -3.9 °F 30.36 in Calm   1.0 mph 73% 0.00 in 37 W/m2
10:52 2.8 °F -3.9 °F 30.36 in Calm   1.0 mph 73% 0.00 in 49 W/m2
10:58 3.2 °F -3.5 °F 30.36 in Calm   1.0 mph 73% 0.00 in 56 W/m2
11:04 3.7 °F -3.3 °F 30.36 in Calm     72% 0.00 in 56 W/m2
11:10 4.3 °F -2.7 °F 30.36 in Calm   1.0 mph 72% 0.00 in 58 W/m2
11:16 3.9 °F -3.4 °F 30.36 in Calm   1.0 mph 71% 0.00 in 54 W/m2
11:22 3.2 °F -3.8 °F 30.35 in Calm     72% 0.00 in 54 W/m2
11:28 3.5 °F -3.2 °F 30.35 in Calm     73% 0.00 in 65 W/m2
11:36 4.8 °F -2.5 °F 30.33 in WSW 1.0 mph 1.0 mph 71% 0.00 in 60 W/m2
11:42 5.0 °F -2.4 °F 30.33 in Calm   1.0 mph 71% 0.00 in 67 W/m2
11:48 4.5 °F -3.1 °F 30.33 in WSW 1.0 mph 1.0 mph 70% 0.00 in 81 W/m2
11:54 5.4 °F -2.0 °F 30.33 in WSW 1.0 mph 1.0 mph 71% 0.00 in 70 W/m2
12:00 5.2 °F -2.5 °F 30.33 in WSW 1.0 mph 1.0 mph 70% 0.00 in 100 W/m2
12:04 5.4 °F -2.3 °F 30.33 in WSW 1.0 mph 1.0 mph 70% 0.00 in 98 W/m2
12:10 5.0 °F -2.7 °F 30.33 in WSW 1.0 mph 1.0 mph 70% 0.00 in 74 W/m2
12:16 5.0 °F -2.4 °F 30.33 in West 1.0 mph 2.0 mph 71% 0.00 in 72 W/m2
12:22 5.0 °F -2.1 °F 30.33 in WSW 2.0 mph 2.0 mph 72% 0.00 in 74 W/m2
12:28 5.1 °F -2.3 °F 30.32 in WSW 1.0 mph 4.0 mph 71% 0.00 in 84 W/m2
12:34 5.5 °F -1.6 °F 30.32 in WSW 1.0 mph 2.0 mph 72% 0.00 in 69 W/m2
12:42 6.2 °F -0.9 °F 30.32 in North 1.0 mph 1.0 mph 72% 0.00 in 72 W/m2
12:48 6.1 °F -1.3 °F 30.32 in WNW 1.0 mph 2.0 mph 71% 0.00 in 72 W/m2
12:54 6.4 °F -0.7 °F 30.32 in North 1.0 mph 2.0 mph 72% 0.00 in 84 W/m2
13:00 6.5 °F -0.6 °F 30.32 in NW 2.0 mph 2.0 mph 72% 0.00 in 81 W/m2
13:02 6.3 °F -0.8 °F 30.32 in WNW 2.0 mph 2.0 mph 72% 0.00 in 83 W/m2
13:08 6.4 °F -0.4 °F 30.32 in NNW 2.0 mph 3.0 mph 73% 0.00 in 97 W/m2
13:14 6.7 °F -0.4 °F 30.32 in NW 2.0 mph 2.0 mph 72% 0.00 in 84 W/m2
13:20 6.7 °F -0.1 °F 30.32 in NW 2.0 mph 4.0 mph 73% 0.00 in 93 W/m2
13:26 6.9 °F 0.1 °F 30.32 in WNW 2.0 mph 4.0 mph 73% 0.00 in 93 W/m2
13:30 7.3 °F 0.5 °F 30.32 in WNW 2.0 mph 3.0 mph 73% 0.00 in 98 W/m2
13:36 6.8 °F 0.0 °F 30.32 in WNW 1.0 mph 3.0 mph 73% 0.00 in 79 W/m2
13:42 7.2 °F 0.7 °F 30.32 in NW 1.0 mph 2.0 mph 74% 0.00 in 70 W/m2
13:48 7.0 °F 0.5 °F 30.32 in NW 1.0 mph 4.0 mph 74% 0.00 in 39 W/m2
13:56 6.3 °F -0.2 °F 30.33 in NW 2.0 mph 3.0 mph 74% 0.00 in 46 W/m2
14:03 6.5 °F 0.3 °F 30.33 in NW 2.0 mph 2.0 mph 75% 0.00 in 118 W/m2
14:08 7.2 °F 0.9 °F 30.33 in NW 1.0 mph 2.0 mph 75% 0.00 in 74 W/m2
14:14 7.0 °F 0.7 °F 30.33 in NW 1.0 mph 2.0 mph 75% 0.00 in 54 W/m2
14:22 6.6 °F 0.4 °F 30.33 in NW 1.0 mph 2.0 mph 75% 0.00 in 37 W/m2
14:28 6.4 °F 0.2 °F 30.33 in NW 1.0 mph 4.0 mph 75% 0.00 in 39 W/m2
14:30 6.3 °F 0.1 °F 30.33 in NW 1.0 mph 1.0 mph 75% 0.00 in 42 W/m2
14:36 6.4 °F 0.2 °F 30.33 in NW 1.0 mph 2.0 mph 75% 0.00 in 44 W/m2
14:38 6.1 °F -0.1 °F 30.33 in NW 1.0 mph 2.0 mph 75% 0.00 in 33 W/m2
14:44 6.1 °F -0.1 °F 30.33 in NW 1.0 mph 2.0 mph 75% 0.00 in 69 W/m2
14:50 6.4 °F 0.4 °F 30.33 in NW 1.0 mph 1.0 mph 76% 0.00 in 83 W/m2
14:56 6.4 °F 0.4 °F 30.33 in NW 1.0 mph 1.0 mph 76% 0.00 in 79 W/m2
15:02 6.5 °F 0.3 °F 30.33 in NW 1.0 mph 2.0 mph 75% 0.00 in 60 W/m2
15:08 6.5 °F 0.5 °F 30.33 in NW 1.0 mph 2.0 mph 76% 0.00 in 109 W/m2
15:14 6.8 °F 0.8 °F 30.33 in NW 1.0 mph 2.0 mph 76% 0.00 in 33 W/m2
15:20 6.8 °F 0.8 °F 30.33 in NW 1.0 mph 1.0 mph 76% 0.00 in 98 W/m2
15:26 7.0 °F 1.0 °F 30.33 in NNW 2.0 mph 2.0 mph 76% 0.00 in 153 W/m2
15:32 7.1 °F 1.1 °F 30.33 in NNW 2.0 mph 3.0 mph 76% 0.00 in 142 W/m2
15:38 6.9 °F 0.9 °F 30.34 in NNW 2.0 mph 3.0 mph 76% 0.00 in 83 W/m2
15:44 6.6 °F 0.6 °F 30.34 in NNW 1.0 mph 3.0 mph 76% 0.00 in 91 W/m2
15:50 6.3 °F 0.6 °F 30.34 in NNW 1.0 mph 1.0 mph 77% 0.00 in 30 W/m2
15:58 6.0 °F 0.3 °F 30.33 in Calm   1.0 mph 77% 0.00 in 21 W/m2
16:04 5.8 °F 0.1 °F 30.33 in Calm     77% 0.00 in 12 W/m2
16:10 5.6 °F 0.2 °F 30.34 in Calm     78% 0.00 in 9 W/m2
16:16 5.3 °F -0.1 °F 30.34 in Calm     78% 0.00 in 5 W/m2
16:24 5.1 °F -0.3 °F 30.34 in Calm     78% 0.00 in 0 W/m2
16:30 5.0 °F -0.1 °F 30.35 in Calm     79% 0.00 in 0 W/m2
16:36 4.9 °F -0.2 °F 30.35 in Calm     79% 0.00 in 0 W/m2
16:42 4.7 °F -0.4 °F 30.35 in Calm     79% 0.00 in 0 W/m2
16:48 4.6 °F -0.5 °F 30.35 in Calm     79% 0.00 in 0 W/m2
16:50 4.6 °F -0.2 °F 30.35 in Calm   1.0 mph 80% 0.00 in 0 W/m2
16:56 4.5 °F -0.3 °F 30.35 in Calm   1.0 mph 80% 0.00 in 0 W/m2
17:02 4.2 °F -0.6 °F 30.35 in Calm     80% 0.00 in 0 W/m2
17:08 3.8 °F -1.0 °F 30.35 in Calm     80% 0.00 in 0 W/m2
17:14 3.5 °F -1.3 °F 30.35 in Calm     80% 0.00 in 0 W/m2
17:20 3.4 °F -1.1 °F 30.35 in Calm     81% 0.00 in 0 W/m2
17:24 3.4 °F -1.1 °F 30.35 in Calm     81% 0.00 in 0 W/m2
17:32 3.2 °F -1.3 °F 30.35 in Calm     81% 0.00 in 0 W/m2
17:36 3.0 °F -1.5 °F 30.35 in Calm     81% 0.00 in 0 W/m2
17:42 2.8 °F -1.7 °F 30.35 in Calm     81% 0.00 in 0 W/m2
17:48 2.5 °F -1.7 °F 30.36 in Calm     82% 0.00 in 0 W/m2
17:54 2.4 °F -1.8 °F 30.36 in Calm     82% 0.00 in 0 W/m2
18:00 2.1 °F -2.1 °F 30.36 in Calm     82% 0.00 in 0 W/m2
18:06 2.1 °F -2.1 °F 30.36 in Calm     82% 0.00 in 0 W/m2
18:10 2.0 °F -2.2 °F 30.36 in Calm     82% 0.00 in 0 W/m2
18:16 1.9 °F -2.1 °F 30.36 in Calm     83% 0.00 in 0 W/m2
18:22 2.1 °F -1.9 °F 30.36 in Calm     83% 0.00 in 0 W/m2
18:28 2.3 °F -1.7 °F 30.37 in Calm     83% 0.00 in 0 W/m2
18:34 2.6 °F -1.1 °F 30.37 in Calm     84% 0.00 in 0 W/m2
18:40 2.9 °F -0.8 °F 30.37 in Calm     84% 0.00 in 0 W/m2
18:46 3.1 °F -0.6 °F 30.37 in Calm     84% 0.00 in 0 W/m2
18:52 2.9 °F -0.8 °F 30.37 in NNE 1.0 mph 2.0 mph 84% 0.00 in 0 W/m2
18:58 2.6 °F -1.1 °F 30.37 in NNE 1.0 mph 2.0 mph 84% 0.00 in 0 W/m2
19:04 2.2 °F -1.5 °F 30.37 in NNE 2.0 mph 2.0 mph 84% 0.00 in 0 W/m2
19:10 2.1 °F -1.6 °F 30.37 in NNE 1.0 mph 3.0 mph 84% 0.00 in 0 W/m2
19:16 2.0 °F -2.0 °F 30.37 in North 1.0 mph 3.0 mph 83% 0.00 in 0 W/m2
19:22 1.9 °F -2.1 °F 30.37 in ENE 2.0 mph 2.0 mph 83% 0.00 in 0 W/m2
19:30 1.9 °F -2.1 °F 30.37 in NE 1.0 mph 1.0 mph 83% 0.00 in 0 W/m2
19:36 1.8 °F -2.2 °F 30.37 in NE 1.0 mph 2.0 mph 83% 0.00 in 0 W/m2
19:42 1.7 °F -2.3 °F 30.37 in ENE 1.0 mph 1.0 mph 83% 0.00 in 0 W/m2
19:48 1.7 °F -2.3 °F 30.37 in ENE 1.0 mph 2.0 mph 83% 0.00 in 0 W/m2
19:54 1.7 °F -2.3 °F 30.37 in ENE 1.0 mph 3.0 mph 83% 0.00 in 0 W/m2
19:58 1.7 °F -2.3 °F 30.38 in ENE 1.0 mph 3.0 mph 83% 0.00 in 0 W/m2
20:06 1.7 °F -2.3 °F 30.38 in Calm   1.0 mph 83% 0.00 in 0 W/m2
20:12 1.8 °F -2.2 °F 30.38 in Calm   1.0 mph 83% 0.00 in 0 W/m2
20:18 1.8 °F -2.2 °F 30.38 in ENE 1.0 mph 2.0 mph 83% 0.00 in 0 W/m2
20:24 1.8 °F -2.2 °F 30.38 in ENE 1.0 mph 1.0 mph 83% 0.00 in 0 W/m2
20:30 1.8 °F -2.4 °F 30.38 in Calm     82% 0.00 in 0 W/m2
20:34 1.8 °F -2.4 °F 30.38 in ENE 1.0 mph 2.0 mph 82% 0.00 in 0 W/m2
20:40 1.7 °F -2.5 °F 30.38 in ENE 1.0 mph 1.0 mph 82% 0.00 in 0 W/m2
20:46 1.7 °F -2.5 °F 30.38 in Calm   1.0 mph 82% 0.00 in 0 W/m2
20:48 1.7 °F -2.5 °F 30.38 in Calm   1.0 mph 82% 0.00 in 0 W/m2
20:54 1.6 °F -2.6 °F 30.38 in Calm     82% 0.00 in 0 W/m2
20:58 1.5 °F -2.7 °F 30.38 in Calm   1.0 mph 82% 0.00 in 0 W/m2
21:04 1.3 °F -2.9 °F 30.38 in Calm     82% 0.00 in 0 W/m2
21:06 1.3 °F -2.9 °F 30.38 in Calm     82% 0.00 in 0 W/m2
21:12 1.0 °F -3.5 °F 30.38 in Calm     81% 0.00 in 0 W/m2
21:20 0.4 °F -4.1 °F 30.38 in Calm     81% 0.00 in 0 W/m2
21:26 0.1 °F -4.3 °F 30.38 in Calm     81% 0.00 in 0 W/m2
21:32 -0.4 °F -4.8 °F 30.38 in Calm     81% 0.00 in 0 W/m2
21:34 -0.6 °F -5.0 °F 30.38 in Calm     81% 0.00 in 0 W/m2
21:40 -1.0 °F -5.4 °F 30.38 in Calm     81% 0.00 in 0 W/m2
21:46 -1.5 °F -5.9 °F 30.38 in Calm     81% 0.00 in 0 W/m2
21:52 -2.1 °F -6.5 °F 30.38 in Calm     81% 0.00 in 0 W/m2
21:58 -2.6 °F -7.0 °F 30.38 in Calm     81% 0.00 in 0 W/m2
22:04 -3.0 °F -7.1 °F 30.38 in Calm     82% 0.00 in 0 W/m2
22:10 -3.3 °F -7.4 °F 30.38 in Calm     82% 0.00 in 0 W/m2
22:16 -3.5 °F -7.6 °F 30.39 in Calm     82% 0.00 in 0 W/m2
22:22 -3.7 °F -7.8 °F 30.38 in Calm     82% 0.00 in 0 W/m2
22:28 -3.8 °F -7.9 °F 30.38 in Calm     82% 0.00 in 0 W/m2
22:34 -3.8 °F -7.9 °F 30.38 in Calm     82% 0.00 in 0 W/m2
22:40 -3.8 °F -7.9 °F 30.38 in Calm     82% 0.00 in 0 W/m2
22:46 -3.8 °F -7.9 °F 30.39 in Calm     82% 0.00 in 0 W/m2
22:52 -3.9 °F -8.0 °F 30.39 in Calm     82% 0.00 in 0 W/m2
22:58 -3.8 °F -7.7 °F 30.39 in Calm     83% 0.00 in 0 W/m2
23:04 -3.6 °F -7.5 °F 30.39 in Calm     83% 0.00 in 0 W/m2
23:10 -3.4 °F -7.3 °F 30.39 in Calm     83% 0.00 in 0 W/m2
23:16 -3.4 °F -7.3 °F 30.39 in Calm     83% 0.00 in 0 W/m2
23:22 -3.3 °F -7.2 °F 30.39 in Calm     83% 0.00 in 0 W/m2
23:28 -3.3 °F -7.2 °F 30.39 in Calm     83% 0.00 in 0 W/m2
23:34 -3.2 °F -7.1 °F 30.39 in Calm     83% 0.00 in 0 W/m2
23:40 -3.2 °F -7.1 °F 30.39 in Calm     83% 0.00 in 0 W/m2
23:48 -3.0 °F -6.9 °F 30.39 in Calm     83% 0.00 in 0 W/m2
23:54 -2.9 °F -6.8 °F 30.39 in Calm     83% 0.00 in 0 W/m2
Country Meadow, Clay, NY, USA
Compliments of Weather Underground - 2 mb